Time;durP1;ratioP1;P1;durP2;ratioP2;P2;SDS_P1;SDS_P2;PMS_P1;PMS_P2;Temp;Humidity;BMP_temperature;BMP_pressure;BME280_temperature;BME280_humidity;BME280_pressure;Samples;Min_cycle;Max_cycle;Signal;HPM_P1;HPM_P2
2024/01/03 00:01:00;;;;;;;0.20;0.20;;;9.80;1.00;;;;;;7373206;19;20407;-70
2024/01/03 00:03:31;;;;;;;0.57;0.25;;;9.90;1.00;;;;;;7376276;19;20015;-70
2024/01/03 00:06:02;;;;;;;0.73;0.30;;;9.80;1.00;;;;;;7372426;19;20014;-70
2024/01/03 00:08:36;;;;;;;0.40;0.20;;;9.90;1.00;;;;;;7374195;19;20476;-71
2024/01/03 00:11:07;;;;;;;1.50;0.50;;;9.80;1.00;;;;;;7375854;19;20014;-70
2024/01/03 00:14:09;;;;;;;0.63;0.30;;;9.80;1.00;;;;;;7374003;19;20022;-69
2024/01/03 00:16:42;;;;;;;0.80;0.40;;;9.70;1.00;;;;;;7372406;19;20018;-70
2024/01/03 00:19:21;;;;;;;2.08;0.60;;;9.60;1.00;;;;;;7374448;19;20007;-70
2024/01/03 00:21:51;;;;;;;2.05;0.52;;;9.70;1.00;;;;;;7375847;19;20799;-70
2024/01/03 00:24:22;;;;;;;1.80;0.90;;;9.60;1.00;;;;;;7380135;19;20019;-70
2024/01/03 00:26:52;;;;;;;0.73;0.40;;;9.40;1.00;;;;;;7380636;19;20077;-70
2024/01/03 00:29:55;;;;;;;2.53;0.50;;;9.30;1.00;;;;;;7380363;19;20468;-70
2024/01/03 00:32:28;;;;;;;2.00;0.40;;;9.30;1.00;;;;;;6871892;19;2003759;-69
2024/01/03 00:35:00;;;;;;;0.80;0.30;;;9.30;1.00;;;;;;7380080;19;20014;-70
2024/01/03 00:37:32;;;;;;;0.93;0.45;;;9.40;1.00;;;;;;7380990;19;20026;-69
2024/01/03 00:40:05;;;;;;;1.35;0.43;;;9.50;1.00;;;;;;7381706;19;20029;-70
2024/01/03 00:42:35;;;;;;;0.77;0.50;;;9.50;1.00;;;;;;7382234;19;19998;-71
2024/01/03 00:45:06;;;;;;;1.30;0.50;;;9.50;1.00;;;;;;7381349;19;20007;-69
2024/01/03 00:47:40;;;;;;;1.95;0.65;;;9.50;1.00;;;;;;7378374;19;20007;-70
2024/01/03 00:50:11;;;;;;;1.30;0.60;;;9.50;1.00;;;;;;7380302;19;20015;-71
2024/01/03 00:52:41;;;;;;;2.10;0.65;;;9.60;1.00;;;;;;7380212;19;20026;-71
2024/01/03 00:55:13;;;;;;;2.42;0.88;;;9.70;1.00;;;;;;7379477;19;20010;-69
2024/01/03 00:57:43;;;;;;;4.43;1.10;;;9.90;1.00;;;;;;7381157;19;20021;-70
2024/01/03 01:00:15;;;;;;;1.55;0.63;;;9.90;1.00;;;;;;7379842;19;20119;-69
2024/01/03 01:02:49;;;;;;;3.30;0.75;;;10.10;1.00;;;;;;7380383;19;20487;-70
2024/01/03 01:05:19;;;;;;;2.58;0.82;;;10.00;1.00;;;;;;7379928;19;20017;-70
2024/01/03 01:07:49;;;;;;;2.88;1.02;;;10.10;1.00;;;;;;7381078;19;20115;-70
2024/01/03 01:10:19;;;;;;;3.03;0.90;;;10.10;1.00;;;;;;7379101;19;20023;-70
2024/01/03 01:12:49;;;;;;;2.10;0.70;;;10.30;1.00;;;;;;7380885;19;20014;-70
2024/01/03 01:15:19;;;;;;;2.42;0.70;;;10.30;1.00;;;;;;7380341;19;20387;-70
2024/01/03 01:17:52;;;;;;;2.05;0.77;;;10.40;1.00;;;;;;7381282;19;20050;-70
2024/01/03 01:20:22;;;;;;;1.92;0.90;;;10.40;1.00;;;;;;7380670;19;20068;-70
2024/01/03 01:22:52;;;;;;;2.28;0.88;;;10.40;1.00;;;;;;7380122;19;20026;-70
2024/01/03 01:25:23;;;;;;;2.88;0.90;;;10.30;1.00;;;;;;7379637;19;20881;-71
2024/01/03 01:27:53;;;;;;;1.80;0.60;;;10.20;1.00;;;;;;7379879;19;20141;-70
2024/01/03 01:30:24;;;;;;;3.17;1.02;;;10.10;1.00;;;;;;7380458;19;20010;-70
2024/01/03 01:32:56;;;;;;;2.58;0.90;;;10.00;1.00;;;;;;7379737;19;20022;-69
2024/01/03 01:35:27;;;;;;;3.22;0.90;;;10.00;1.00;;;;;;7377518;19;20011;-70
2024/01/03 01:37:57;;;;;;;1.88;0.80;;;10.00;1.00;;;;;;7380393;19;20010;-70
2024/01/03 01:40:27;;;;;;;2.97;0.80;;;9.90;1.00;;;;;;7378997;19;20010;-70
2024/01/03 01:42:57;;;;;;;2.20;0.63;;;9.90;1.00;;;;;;7380258;19;20015;-70
2024/01/03 01:45:27;;;;;;;3.75;0.95;;;9.90;1.00;;;;;;7380008;19;20006;-69
2024/01/03 01:47:59;;;;;;;1.35;0.60;;;9.90;1.00;;;;;;7380204;19;20007;-70
2024/01/03 01:50:30;;;;;;;2.75;0.75;;;9.80;1.00;;;;;;7378527;19;20026;-69
2024/01/03 01:53:00;;;;;;;2.05;0.70;;;9.80;1.00;;;;;;7378403;19;20356;-70
2024/01/03 01:55:31;;;;;;;2.80;0.80;;;9.80;1.00;;;;;;7379047;19;20086;-69
2024/01/03 01:58:01;;;;;;;1.92;0.77;;;9.80;1.00;;;;;;7379372;19;20014;-70
2024/01/03 02:00:31;;;;;;;2.47;1.00;;;9.80;1.00;;;;;;7379926;19;20010;-70
2024/01/03 02:03:04;;;;;;;2.45;0.70;;;9.70;1.00;;;;;;7379116;19;20082;-70
2024/01/03 02:05:37;;;;;;;1.02;0.70;;;9.70;1.00;;;;;;7378297;19;20082;-70
2024/01/03 02:08:10;;;;;;;1.58;0.70;;;9.60;1.00;;;;;;7380129;19;20018;-70
2024/01/03 02:10:41;;;;;;;2.45;0.70;;;9.70;1.00;;;;;;7377504;19;20010;-70
2024/01/03 02:13:11;;;;;;;2.25;0.88;;;9.60;1.00;;;;;;7377223;19;20006;-70
2024/01/03 02:15:41;;;;;;;3.13;0.80;;;9.60;1.00;;;;;;7377568;19;20039;-70
2024/01/03 02:18:18;;;;;;;3.78;0.90;;;9.50;1.00;;;;;;7377555;19;20033;-70
2024/01/03 02:20:49;;;;;;;2.92;0.70;;;9.50;1.00;;;;;;7380084;19;20368;-70
2024/01/03 02:23:22;;;;;;;1.35;0.60;;;9.40;1.00;;;;;;7378907;19;20018;-70
2024/01/03 02:25:52;;;;;;;1.58;0.80;;;9.30;1.00;;;;;;7377838;19;20364;-70
2024/01/03 02:28:23;;;;;;;2.35;0.63;;;9.20;1.00;;;;;;7378409;19;20028;-70
2024/01/03 02:30:53;;;;;;;0.70;0.50;;;9.20;1.00;;;;;;7377707;19;20010;-69
2024/01/03 02:33:24;;;;;;;3.28;0.88;;;9.30;1.00;;;;;;7377708;19;20014;-70
2024/01/03 02:35:55;;;;;;;1.27;0.68;;;9.30;1.00;;;;;;7377863;19;20010;-70
2024/01/03 02:38:28;;;;;;;3.17;0.65;;;9.30;1.00;;;;;;7377877;19;20006;-70
2024/01/03 02:40:58;;;;;;;1.00;0.40;;;9.20;1.00;;;;;;7377844;19;20010;-70
2024/01/03 02:43:28;;;;;;;2.33;0.60;;;9.20;1.00;;;;;;7378640;19;20022;-71
2024/01/03 02:45:58;;;;;;;0.93;0.50;;;9.10;1.00;;;;;;7375960;19;20006;-70
2024/01/03 02:48:28;;;;;;;1.85;0.63;;;9.00;1.00;;;;;;7375577;19;20014;-70
2024/01/03 02:50:58;;;;;;;1.25;0.60;;;9.10;1.00;;;;;;7377685;19;20011;-70
2024/01/03 02:53:30;;;;;;;1.02;0.50;;;9.10;1.00;;;;;;7377623;19;20360;-69
2024/01/03 02:56:00;;;;;;;1.60;0.40;;;9.20;1.00;;;;;;7377281;19;20010;-70
2024/01/03 02:58:30;;;;;;;1.08;0.38;;;9.10;1.00;;;;;;7375486;19;20022;-70
2024/01/03 03:01:00;;;;;;;0.57;0.30;;;9.10;1.00;;;;;;7376838;19;20125;-70
2024/01/03 03:03:30;;;;;;;1.17;0.40;;;9.10;1.00;;;;;;7378455;19;20057;-69
2024/01/03 03:06:00;;;;;;;0.80;0.32;;;9.00;1.00;;;;;;7376017;19;20010;-70
2024/01/03 03:08:33;;;;;;;0.60;0.40;;;9.00;1.00;;;;;;7376871;19;20006;-70
2024/01/03 03:11:04;;;;;;;0.90;0.63;;;9.00;1.00;;;;;;7377696;19;20043;-70
2024/01/03 03:13:34;;;;;;;1.17;0.40;;;9.00;1.00;;;;;;7376557;19;20038;-69
2024/01/03 03:16:04;;;;;;;0.60;0.32;;;9.00;1.00;;;;;;7376713;19;20023;-69
2024/01/03 03:18:34;;;;;;;0.80;0.40;;;9.00;1.00;;;;;;7375393;19;20396;-70
2024/01/03 03:21:04;;;;;;;1.33;0.30;;;8.90;1.00;;;;;;7376938;19;20021;-71
2024/01/03 03:23:37;;;;;;;0.98;0.30;;;8.90;1.00;;;;;;7375885;19;20036;-70
2024/01/03 03:26:07;;;;;;;1.08;0.40;;;8.90;1.00;;;;;;7377197;19;20029;-69
2024/01/03 03:28:37;;;;;;;1.88;0.45;;;8.80;1.00;;;;;;7375504;19;20013;-70
2024/01/03 03:31:07;;;;;;;0.93;0.47;;;8.80;1.00;;;;;;7377149;19;20023;-69
2024/01/03 03:33:37;;;;;;;1.08;0.52;;;8.70;1.00;;;;;;7375873;19;20027;-69
2024/01/03 03:36:14;;;;;;;0.50;0.30;;;8.70;1.00;;;;;;7376518;19;20109;-70
2024/01/03 03:38:46;;;;;;;0.40;0.30;;;8.60;1.00;;;;;;7377165;19;20021;-71
2024/01/03 03:41:19;;;;;;;1.15;0.40;;;8.60;1.00;;;;;;7378522;19;20041;-71
2024/01/03 03:43:50;;;;;;;1.20;0.40;;;8.60;1.00;;;;;;7371148;19;20018;-71
2024/01/03 03:46:20;;;;;;;2.05;0.40;;;8.50;1.00;;;;;;7376503;19;20010;-71
2024/01/03 03:48:50;;;;;;;1.33;0.60;;;8.50;1.00;;;;;;7369678;19;20031;-71
2024/01/03 03:51:21;;;;;;;0.73;0.38;;;8.50;1.00;;;;;;7376309;19;20022;-71
2024/01/03 03:53:53;;;;;;;0.68;0.38;;;8.40;1.00;;;;;;7376445;19;20020;-71
2024/01/03 03:56:28;;;;;;;0.70;0.30;;;8.40;1.00;;;;;;7377024;19;20490;-70
2024/01/03 03:58:59;;;;;;;1.48;0.47;;;8.50;1.00;;;;;;7381718;19;20389;-70
2024/01/03 04:01:29;;;;;;;1.45;0.40;;;8.50;1.00;;;;;;7378310;19;20010;-71
2024/01/03 04:03:59;;;;;;;0.93;0.50;;;8.50;1.00;;;;;;7380874;19;20479;-71
2024/01/03 04:06:29;;;;;;;2.28;0.50;;;8.50;1.00;;;;;;7380655;19;20365;-68
2024/01/03 04:09:02;;;;;;;1.70;0.50;;;8.50;1.00;;;;;;7381595;19;20194;-68
2024/01/03 04:11:32;;;;;;;1.98;0.50;;;8.50;1.00;;;;;;7381792;19;20010;-72
2024/01/03 04:14:02;;;;;;;1.75;0.60;;;8.50;1.00;;;;;;7380852;19;20022;-70
2024/01/03 04:16:32;;;;;;;1.48;0.60;;;8.60;1.00;;;;;;7380561;19;20019;-70
2024/01/03 04:19:02;;;;;;;1.85;0.82;;;8.70;1.00;;;;;;7381656;19;20044;-70
2024/01/03 04:21:33;;;;;;;2.33;0.77;;;8.70;1.00;;;;;;7380872;19;20018;-70
2024/01/03 04:24:06;;;;;;;2.85;1.00;;;8.90;1.00;;;;;;7381896;19;20006;-70
2024/01/03 04:26:36;;;;;;;3.08;0.93;;;9.30;1.00;;;;;;7381248;19;20018;-71
2024/01/03 04:29:07;;;;;;;3.30;1.05;;;9.30;1.00;;;;;;7381117;19;20015;-70
2024/01/03 04:31:38;;;;;;;5.03;0.98;;;9.20;1.00;;;;;;7377231;19;20011;-71
2024/01/03 04:34:08;;;;;;;3.55;0.95;;;9.30;1.00;;;;;;7381174;19;20007;-72
2024/01/03 04:36:38;;;;;;;2.22;1.10;;;9.30;1.00;;;;;;7382018;19;20025;-70
2024/01/03 04:39:10;;;;;;;3.10;0.90;;;9.30;1.00;;;;;;7380863;19;20019;-70
2024/01/03 04:41:40;;;;;;;2.90;1.10;;;9.50;1.00;;;;;;7381026;19;20017;-70
2024/01/03 04:44:10;;;;;;;2.78;0.80;;;9.40;1.00;;;;;;7380819;19;20118;-70
2024/01/03 04:46:40;;;;;;;3.40;1.20;;;9.30;1.00;;;;;;7380905;19;20017;-70
2024/01/03 04:49:10;;;;;;;2.38;1.00;;;9.40;1.00;;;;;;7379849;19;20014;-70
2024/01/03 04:51:40;;;;;;;5.07;1.17;;;9.50;1.00;;;;;;7380384;19;20018;-70
2024/01/03 04:54:13;;;;;;;3.97;0.85;;;9.40;1.00;;;;;;7381261;19;20487;-70
2024/01/03 04:56:43;;;;;;;2.85;0.82;;;9.30;1.00;;;;;;7381880;19;20024;-71
2024/01/03 04:59:13;;;;;;;3.75;1.23;;;9.30;1.00;;;;;;7381170;19;20020;-71
2024/01/03 05:01:43;;;;;;;7.25;1.83;;;9.30;1.00;;;;;;7380851;19;20014;-70
2024/01/03 05:04:13;;;;;;;4.55;1.10;;;9.40;1.00;;;;;;7380164;19;20573;-70
2024/01/03 05:06:44;;;;;;;5.82;1.33;;;9.60;1.00;;;;;;7380673;19;20006;-70
2024/01/03 05:09:16;;;;;;;4.28;1.00;;;10.00;1.00;;;;;;7376946;19;20095;-69
2024/01/03 05:11:46;;;;;;;6.70;1.25;;;10.00;1.00;;;;;;7381808;19;20017;-70
2024/01/03 05:14:16;;;;;;;5.75;1.30;;;10.00;1.00;;;;;;7378046;19;20109;-69
2024/01/03 05:16:46;;;;;;;3.63;1.10;;;10.00;1.00;;;;;;7380656;19;20081;-70
2024/01/03 05:19:16;;;;;;;4.47;1.02;;;9.90;1.00;;;;;;7378263;19;20093;-70
2024/01/03 05:21:47;;;;;;;5.85;1.50;;;9.80;1.00;;;;;;7380018;19;20100;-70
2024/01/03 05:24:19;;;;;;;5.22;1.25;;;9.60;1.00;;;;;;7378770;19;20029;-68
2024/01/03 05:26:50;;;;;;;3.47;0.80;;;9.50;1.00;;;;;;7376037;19;20021;-70
2024/01/03 05:29:20;;;;;;;5.55;1.35;;;9.50;1.00;;;;;;7380177;19;20006;-70
2024/01/03 05:31:50;;;;;;;5.90;1.40;;;9.40;1.00;;;;;;7380752;19;20010;-70
2024/01/03 05:34:20;;;;;;;5.15;1.40;;;9.30;1.00;;;;;;7381301;19;20006;-70
2024/01/03 05:36:51;;;;;;;4.30;1.10;;;9.30;1.00;;;;;;7377278;19;20475;-70
2024/01/03 05:39:23;;;;;;;6.22;1.25;;;9.50;1.00;;;;;;7380107;19;20014;-70
2024/01/03 05:41:53;;;;;;;5.00;1.42;;;9.40;1.00;;;;;;7378282;19;20078;-71
2024/01/03 05:44:23;;;;;;;6.18;1.23;;;9.30;1.00;;;;;;7379227;19;20019;-70
2024/01/03 05:46:53;;;;;;;4.20;1.13;;;9.50;1.00;;;;;;7378739;19;20011;-69
2024/01/03 05:49:23;;;;;;;5.70;1.08;;;9.50;1.00;;;;;;7378110;19;20486;-70
2024/01/03 05:51:53;;;;;;;4.53;1.23;;;9.70;1.00;;;;;;7378709;19;20078;-71
2024/01/03 05:54:26;;;;;;;5.85;1.10;;;9.80;1.00;;;;;;7379481;19;20015;-70
2024/01/03 05:56:56;;;;;;;5.97;1.10;;;9.90;1.00;;;;;;7379981;19;20021;-71
2024/01/03 05:59:26;;;;;;;2.78;1.10;;;9.70;1.00;;;;;;7378906;19;20040;-70
2024/01/03 06:01:56;;;;;;;3.08;1.00;;;9.70;1.00;;;;;;7378185;19;20039;-70
2024/01/03 06:04:27;;;;;;;6.60;1.05;;;9.70;1.00;;;;;;7378364;19;20014;-70
2024/01/03 06:06:57;;;;;;;5.00;1.00;;;9.70;1.00;;;;;;7377945;19;20408;-69
2024/01/03 06:09:30;;;;;;;8.52;1.80;;;9.60;1.00;;;;;;7378047;19;20018;-69
2024/01/03 06:12:00;;;;;;;5.35;1.10;;;9.70;1.00;;;;;;7379163;19;20022;-70
2024/01/03 06:14:30;;;;;;;5.13;1.42;;;9.60;1.00;;;;;;7376877;19;20085;-70
2024/01/03 06:17:00;;;;;;;6.20;1.65;;;9.70;1.00;;;;;;7378624;19;20031;-69
2024/01/03 06:19:31;;;;;;;3.95;1.27;;;9.70;1.00;;;;;;7376291;19;20327;-70
2024/01/03 06:22:01;;;;;;;4.95;1.27;;;9.50;1.00;;;;;;7378983;19;20353;-70
2024/01/03 06:24:33;;;;;;;6.28;1.10;;;9.50;1.00;;;;;;7377848;19;20014;-70
2024/01/03 06:27:03;;;;;;;3.13;0.93;;;9.40;1.00;;;;;;7378194;19;20430;-70
2024/01/03 06:29:34;;;;;;;4.85;1.20;;;9.30;1.00;;;;;;7376930;19;20378;-70
2024/01/03 06:32:08;;;;;;;4.25;1.00;;;9.30;1.00;;;;;;7377729;19;20035;-69
2024/01/03 06:34:38;;;;;;;2.95;0.90;;;9.30;1.00;;;;;;7375792;19;20776;-70
2024/01/03 06:37:08;;;;;;;3.45;1.00;;;9.30;1.00;;;;;;7379621;19;20014;-70
2024/01/03 06:39:41;;;;;;;3.90;0.90;;;9.30;1.00;;;;;;7375637;19;20015;-69
2024/01/03 06:42:11;;;;;;;5.15;1.00;;;9.20;1.00;;;;;;7376828;19;20769;-71
2024/01/03 06:44:41;;;;;;;3.67;0.60;;;9.30;1.00;;;;;;7375615;19;20015;-70
2024/01/03 06:47:11;;;;;;;1.75;0.50;;;9.10;1.00;;;;;;7377491;19;20015;-69
2024/01/03 06:49:41;;;;;;;5.97;1.80;;;9.10;1.00;;;;;;7375052;19;20006;-70
2024/01/03 06:52:11;;;;;;;1.73;0.77;;;9.10;1.00;;;;;;7375728;19;20021;-69
2024/01/03 06:54:43;;;;;;;2.33;1.00;;;9.20;1.00;;;;;;7376204;19;20021;-69
2024/01/03 06:57:13;;;;;;;2.35;0.65;;;9.10;1.00;;;;;;7377740;19;20021;-71
2024/01/03 06:59:43;;;;;;;1.90;0.88;;;9.20;1.00;;;;;;7376058;19;20038;-69
2024/01/03 07:02:14;;;;;;;2.40;0.82;;;9.20;1.00;;;;;;7378132;19;20538;-70
2024/01/03 07:04:44;;;;;;;2.00;0.55;;;9.10;1.00;;;;;;7375311;19;27243;-70
2024/01/03 07:07:17;;;;;;;1.05;0.50;;;9.00;1.00;;;;;;7376310;19;20097;-69
2024/01/03 07:09:49;;;;;;;3.05;1.13;;;9.00;1.00;;;;;;7375367;19;20643;-69
2024/01/03 07:12:21;;;;;;;4.60;1.17;;;9.00;1.00;;;;;;7376786;19;20337;-68
2024/01/03 07:14:51;;;;;;;4.90;0.80;;;8.90;1.00;;;;;;7375450;19;20014;-70
2024/01/03 07:17:21;;;;;;;3.50;1.20;;;8.80;1.00;;;;;;7376194;19;20037;-69
2024/01/03 07:19:52;;;;;;;6.45;0.93;;;8.80;1.00;;;;;;7374868;19;20006;-69
2024/01/03 07:22:22;;;;;;;2.42;1.02;;;8.70;1.00;;;;;;7378123;19;20014;-69
2024/01/03 07:24:54;;;;;;;3.53;1.58;;;8.80;1.00;;;;;;7375070;19;20010;-70
2024/01/03 07:27:24;;;;;;;4.05;1.10;;;8.70;1.00;;;;;;7377253;19;20118;-69
2024/01/03 07:29:54;;;;;;;2.75;0.95;;;8.80;1.00;;;;;;7376049;19;20015;-69
2024/01/03 07:32:24;;;;;;;4.05;1.10;;;8.80;1.00;;;;;;7378165;19;20049;-68
2024/01/03 07:34:55;;;;;;;3.47;1.20;;;8.90;1.00;;;;;;7383792;19;20041;-69
2024/01/03 07:37:25;;;;;;;6.22;1.17;;;8.90;1.00;;;;;;7381994;19;20102;-68
2024/01/03 07:39:57;;;;;;;5.15;1.20;;;8.90;1.00;;;;;;7380993;19;20011;-68
2024/01/03 07:42:27;;;;;;;2.72;0.90;;;8.90;1.00;;;;;;7383716;19;20014;-68
2024/01/03 07:44:57;;;;;;;4.45;1.33;;;9.00;1.00;;;;;;7383434;19;20006;-69
2024/01/03 07:47:28;;;;;;;2.25;0.73;;;9.10;1.00;;;;;;7382514;19;20011;-69
2024/01/03 07:49:58;;;;;;;3.50;1.08;;;9.20;1.00;;;;;;7382957;19;20859;-70
2024/01/03 07:52:28;;;;;;;2.80;0.82;;;9.10;1.00;;;;;;7383223;19;20074;-69
2024/01/03 07:55:01;;;;;;;2.20;1.00;;;9.20;1.00;;;;;;7379589;19;20006;-69
2024/01/03 07:57:30;;;;;;;3.00;1.25;;;9.30;1.00;;;;;;7382271;19;20011;-69
2024/01/03 08:00:01;;;;;;;5.78;0.90;;;9.40;1.00;;;;;;7379247;19;20019;-69
2024/01/03 08:02:33;;;;;;;5.75;1.08;;;9.50;1.00;;;;;;7377488;19;20014;-69
2024/01/03 08:05:07;;;;;;;4.18;1.10;;;9.50;1.00;;;;;;7380668;19;20011;-69
2024/01/03 08:07:37;;;;;;;2.97;1.10;;;9.50;1.00;;;;;;7380302;19;20078;-69
2024/01/03 08:10:11;;;;;;;2.28;0.77;;;9.60;1.00;;;;;;7381733;19;20010;-70
2024/01/03 08:12:41;;;;;;;3.13;1.27;;;9.70;1.00;;;;;;7381969;19;20011;-68
2024/01/03 08:15:12;;;;;;;5.00;1.33;;;9.60;1.00;;;;;;7379664;19;20010;-69
2024/01/03 08:17:42;;;;;;;6.82;1.15;;;9.70;1.00;;;;;;7381018;19;20014;-69
2024/01/03 08:20:13;;;;;;;4.15;1.00;;;9.80;1.00;;;;;;7379824;19;20007;-69
2024/01/03 08:22:43;;;;;;;3.83;1.00;;;9.80;1.00;;;;;;7379466;19;20018;-69
2024/01/03 08:25:16;;;;;;;3.95;1.00;;;9.80;1.00;;;;;;7379340;19;20110;-69
2024/01/03 08:27:46;;;;;;;4.13;0.90;;;9.90;1.00;;;;;;7381322;19;20486;-70
2024/01/03 08:30:17;;;;;;;3.85;1.05;;;9.90;1.00;;;;;;7378860;19;20027;-69
2024/01/03 08:32:47;;;;;;;2.35;0.80;;;10.00;1.00;;;;;;7380859;19;20022;-69
2024/01/03 08:35:17;;;;;;;2.78;1.10;;;9.90;1.00;;;;;;7379521;19;20082;-70
2024/01/03 08:37:47;;;;;;;3.55;1.80;;;10.10;1.00;;;;;;7379712;19;20094;-70
2024/01/03 08:40:20;;;;;;;4.05;0.82;;;10.10;1.00;;;;;;7378991;19;20025;-69
2024/01/03 08:42:50;;;;;;;6.30;1.25;;;10.10;1.00;;;;;;7378984;19;20014;-69
2024/01/03 08:45:20;;;;;;;2.85;0.68;;;10.20;1.00;;;;;;7378995;19;20014;-69
2024/01/03 08:47:50;;;;;;;3.35;1.38;;;10.30;1.00;;;;;;7380338;19;20043;-69
2024/01/03 08:50:23;;;;;;;4.20;1.40;;;10.30;1.00;;;;;;7379543;19;20006;-69
2024/01/03 08:52:53;;;;;;;6.93;3.28;;;10.40;1.00;;;;;;7380605;19;20006;-70
2024/01/03 08:55:26;;;;;;;3.78;1.05;;;10.40;1.00;;;;;;7379145;19;20395;-68
2024/01/03 08:57:58;;;;;;;2.10;0.73;;;10.40;1.00;;;;;;7379518;19;20030;-69
2024/01/03 09:00:28;;;;;;;4.40;0.85;;;10.40;1.00;;;;;;7378951;19;20014;-69
2024/01/03 09:03:00;;;;;;;2.65;0.77;;;10.60;1.00;;;;;;7381064;19;20014;-69
2024/01/03 09:05:31;;;;;;;1.65;0.63;;;10.60;1.00;;;;;;7380810;19;20018;-69
2024/01/03 09:08:01;;;;;;;4.03;1.10;;;10.60;1.00;;;;;;7380566;19;20017;-69
2024/01/03 09:10:36;;;;;;;3.13;0.73;;;10.70;1.00;;;;;;7379191;19;20014;-69
2024/01/03 09:13:08;;;;;;;2.70;0.82;;;10.70;1.00;;;;;;7381043;19;20332;-69
2024/01/03 09:15:35;;;;;;;4.15;1.45;;;10.70;1.00;;;;;;7379248;19;20516;-69
2024/01/03 09:18:06;;;;;;;2.75;1.08;;;10.70;1.00;;;;;;7382321;19;20113;-70
2024/01/03 09:20:37;;;;;;;3.15;0.80;;;10.80;1.00;;;;;;7380222;19;20438;-69
2024/01/03 09:23:07;;;;;;;2.22;0.80;;;10.90;1.00;;;;;;7380337;19;20468;-70
2024/01/03 09:25:39;;;;;;;1.65;0.88;;;10.90;1.00;;;;;;7379402;19;20471;-68
2024/01/03 09:28:10;;;;;;;2.75;1.08;;;11.00;1.00;;;;;;7374802;19;20041;-69
2024/01/03 09:30:41;;;;;;;1.20;0.55;;;11.10;1.00;;;;;;7379790;19;20017;-70
2024/01/03 09:33:12;;;;;;;2.95;0.70;;;11.20;1.00;;;;;;7378023;19;20066;-70
2024/01/03 09:35:42;;;;;;;2.90;0.63;;;11.20;1.00;;;;;;7378183;19;20014;-70
2024/01/03 09:38:12;;;;;;;4.35;1.00;;;11.20;1.00;;;;;;7377997;19;20665;-69
2024/01/03 09:40:45;;;;;;;1.30;0.65;;;11.10;1.00;;;;;;7377967;19;20011;-69
2024/01/03 09:43:16;;;;;;;2.45;0.88;;;11.10;1.00;;;;;;7378027;19;20017;-69
2024/01/03 09:45:47;;;;;;;1.92;0.47;;;11.00;1.00;;;;;;7378001;19;20048;-69
2024/01/03 09:48:18;;;;;;;3.22;0.68;;;11.00;1.00;;;;;;7377740;19;20783;-69
2024/01/03 09:50:50;;;;;;;4.35;0.82;;;11.00;1.00;;;;;;7379073;19;20046;-69
2024/01/03 09:53:22;;;;;;;2.70;0.70;;;11.00;1.00;;;;;;7378739;19;20078;-70
2024/01/03 09:55:54;;;;;;;2.72;1.10;;;11.00;1.00;;;;;;7375157;19;20099;-70
2024/01/03 09:58:26;;;;;;;3.25;0.90;;;11.10;1.00;;;;;;7377280;19;20074;-70
2024/01/03 10:00:56;;;;;;;1.30;0.47;;;11.20;1.00;;;;;;7376601;19;20027;-69
2024/01/03 10:03:26;;;;;;;1.70;0.60;;;11.30;1.00;;;;;;7379493;19;20021;-70
2024/01/03 10:06:10;;;;;;;1.50;0.60;;;11.40;1.00;;;;;;7377434;19;20010;-70
2024/01/03 10:08:59;;;;;;;1.58;0.45;;;11.30;1.00;;;;;;7376046;19;20023;-70
2024/01/03 10:11:33;;;;;;;2.88;0.55;;;11.40;1.00;;;;;;7377149;19;20011;-71
2024/01/03 10:14:17;;;;;;;1.58;0.50;;;11.30;1.00;;;;;;7378437;19;20010;-71
2024/01/03 10:16:48;;;;;;;2.33;0.40;;;11.50;1.00;;;;;;7375805;19;20014;-69
2024/01/03 10:19:19;;;;;;;2.28;0.43;;;11.40;1.00;;;;;;7376046;19;20039;-70
2024/01/03 10:21:52;;;;;;;1.17;0.80;;;11.20;1.00;;;;;;7376528;19;20069;-69
2024/01/03 10:24:24;;;;;;;1.58;0.45;;;11.10;1.00;;;;;;7376219;19;20019;-70
2024/01/03 10:27:09;;;;;;;1.17;0.50;;;11.00;1.00;;;;;;7378354;19;20503;-69
2024/01/03 10:29:41;;;;;;;3.20;0.60;;;11.00;1.00;;;;;;7373771;19;20357;-70
2024/01/03 10:32:17;;;;;;;2.38;0.70;;;10.60;1.00;;;;;;7375580;19;20434;-70
2024/01/03 10:34:47;;;;;;;1.13;0.43;;;10.60;1.00;;;;;;7374391;19;20014;-69
2024/01/03 10:37:17;;;;;;;2.80;0.70;;;10.80;1.00;;;;;;7376218;19;20045;-69
2024/01/03 10:39:51;;;;;;;2.88;0.70;;;10.70;1.00;;;;;;7376571;19;20025;-70
2024/01/03 10:42:25;;;;;;;0.75;0.55;;;10.80;1.00;;;;;;7377032;19;20015;-70
2024/01/03 10:44:56;;;;;;;1.90;0.40;;;10.90;1.00;;;;;;7378063;19;20050;-70
2024/01/03 10:47:26;;;;;;;2.45;0.50;;;10.80;1.00;;;;;;7376062;19;20015;-70
2024/01/03 10:49:56;;;;;;;1.60;0.50;;;10.80;1.00;;;;;;7375303;19;20010;-70
2024/01/03 10:52:32;;;;;;;1.50;0.73;;;10.80;1.00;;;;;;7376662;19;20010;-69
2024/01/03 10:55:05;;;;;;;2.13;0.60;;;10.80;1.00;;;;;;7375744;19;20505;-70
2024/01/03 10:57:42;;;;;;;3.47;0.82;;;10.70;1.00;;;;;;7376086;19;20022;-70
2024/01/03 11:00:21;;;;;;;3.28;0.75;;;10.70;1.00;;;;;;7378584;19;20022;-70
2024/01/03 11:02:59;;;;;;;1.58;0.88;;;10.70;1.00;;;;;;7372743;19;20070;-69
2024/01/03 11:05:37;;;;;;;1.23;0.47;;;10.80;1.00;;;;;;7375694;19;20014;-70
2024/01/03 11:08:12;;;;;;;2.90;0.70;;;10.80;1.00;;;;;;7375816;19;20029;-69
2024/01/03 11:10:49;;;;;;;2.15;0.80;;;10.80;1.00;;;;;;7371247;19;20031;-70
2024/01/03 11:13:32;;;;;;;0.77;0.35;;;10.90;1.00;;;;;;7369753;19;20007;-71
2024/01/03 11:16:05;;;;;;;0.90;0.40;;;11.00;1.00;;;;;;7373066;19;20338;-69
2024/01/03 11:18:48;;;;;;;2.90;0.40;;;11.00;1.00;;;;;;7374284;19;20410;-69
2024/01/03 11:21:39;;;;;;;0.77;0.40;;;11.20;1.00;;;;;;7373092;19;20010;-70
2024/01/03 11:24:52;;;;;;;3.38;0.80;;;11.20;1.00;;;;;;7374857;19;20011;-70
2024/01/03 11:27:26;;;;;;;2.10;0.75;;;11.20;1.00;;;;;;6865484;19;2005249;-71
2024/01/03 11:29:58;;;;;;;1.33;0.57;;;11.30;1.00;;;;;;7375272;19;20010;-70
2024/01/03 11:32:39;;;;;;;1.67;0.60;;;11.40;1.00;;;;;;7375902;19;20007;-70
2024/01/03 11:35:13;;;;;;;1.80;0.75;;;11.60;1.00;;;;;;7376008;19;20022;-69
2024/01/03 11:37:43;;;;;;;2.80;0.60;;;12.00;1.00;;;;;;7376258;19;20010;-70
2024/01/03 11:40:22;;;;;;;2.00;0.82;;;12.20;1.00;;;;;;7374921;19;20022;-68
2024/01/03 11:43:00;;;;;;;1.58;0.60;;;12.20;1.00;;;;;;7372769;19;20010;-70
2024/01/03 11:45:32;;;;;;;1.33;0.40;;;12.10;1.00;;;;;;7375298;19;20011;-70
2024/01/03 11:48:03;;;;;;;1.67;0.40;;;12.00;1.00;;;;;;7373703;19;20078;-69
2024/01/03 11:50:35;;;;;;;1.25;0.35;;;11.90;1.00;;;;;;7373386;19;20038;-69
2024/01/03 11:53:09;;;;;;;2.55;0.68;;;11.90;1.00;;;;;;7374466;19;20014;-69
2024/01/03 11:55:49;;;;;;;4.00;0.80;;;11.90;1.00;;;;;;7373343;19;20086;-69
2024/01/03 11:58:19;;;;;;;2.80;0.50;;;11.90;1.00;;;;;;7372731;19;20041;-70
2024/01/03 12:00:52;;;;;;;1.00;0.50;;;12.00;1.00;;;;;;7377374;19;19999;-69
2024/01/03 12:03:28;;;;;;;3.33;0.98;;;11.90;1.00;;;;;;7373859;19;20369;-70
2024/01/03 12:05:59;;;;;;;5.85;1.27;;;12.00;1.00;;;;;;7373622;19;20082;-71
2024/01/03 12:08:30;;;;;;;8.02;1.25;;;12.10;1.00;;;;;;7373986;19;20022;-70
2024/01/03 12:11:00;;;;;;;5.28;1.13;;;12.10;1.00;;;;;;7374675;19;20006;-69
2024/01/03 12:13:30;;;;;;;4.55;1.40;;;12.10;1.00;;;;;;7374320;19;20014;-70
2024/01/03 12:16:05;;;;;;;3.53;0.95;;;12.40;1.00;;;;;;7374745;19;20025;-69
2024/01/03 12:18:48;;;;;;;2.28;0.75;;;12.50;1.00;;;;;;7375667;19;20018;-70
2024/01/03 12:21:18;;;;;;;3.63;1.30;;;12.30;1.00;;;;;;7382119;19;20015;-70
2024/01/03 12:23:59;;;;;;;4.47;1.13;;;12.20;1.00;;;;;;7382169;19;20010;-70
2024/01/03 12:26:30;;;;;;;3.67;0.80;;;12.30;1.00;;;;;;7380666;19;20014;-69
2024/01/03 12:29:03;;;;;;;1.38;0.70;;;12.30;1.00;;;;;;7382058;19;20039;-70
2024/01/03 12:31:37;;;;;;;1.50;0.65;;;12.20;1.00;;;;;;7383330;19;20015;-69
2024/01/03 12:34:08;;;;;;;3.95;1.30;;;12.10;1.00;;;;;;7381582;19;20953;-70
2024/01/03 12:36:39;;;;;;;4.07;1.15;;;12.10;1.00;;;;;;7382571;19;20020;-70
2024/01/03 12:39:09;;;;;;;3.05;0.90;;;11.90;1.00;;;;;;7381114;19;20011;-69
2024/01/03 12:41:40;;;;;;;4.07;0.95;;;11.80;1.00;;;;;;7381051;19;20037;-70
2024/01/03 12:44:10;;;;;;;3.45;0.75;;;11.70;1.00;;;;;;7380788;19;20010;-69
2024/01/03 12:46:42;;;;;;;3.70;0.73;;;11.60;1.00;;;;;;7380870;19;20062;-70
2024/01/03 12:49:12;;;;;;;1.92;0.45;;;11.60;1.00;;;;;;7380050;19;20098;-69
2024/01/03 12:51:42;;;;;;;2.55;0.60;;;11.50;1.00;;;;;;7381119;19;20018;-70
2024/01/03 12:54:16;;;;;;;1.00;0.60;;;11.60;1.00;;;;;;7380229;19;20030;-70
2024/01/03 12:56:46;;;;;;;3.90;1.80;;;11.60;1.00;;;;;;7381945;19;20013;-69
2024/01/03 12:59:17;;;;;;;1.30;0.68;;;11.60;1.00;;;;;;7379224;19;20015;-70
2024/01/03 13:01:50;;;;;;;2.25;0.70;;;11.60;1.00;;;;;;7381518;19;21759;-69
2024/01/03 13:04:20;;;;;;;2.08;0.88;;;11.50;1.00;;;;;;7381036;19;20503;-70
2024/01/03 13:06:50;;;;;;;4.38;0.80;;;11.40;1.00;;;;;;7381691;19;20085;-69
2024/01/03 13:09:23;;;;;;;1.30;0.68;;;11.30;1.00;;;;;;7377010;19;20010;-69
2024/01/03 13:11:54;;;;;;;2.33;0.68;;;11.30;1.00;;;;;;7382495;19;20092;-69
2024/01/03 13:14:25;;;;;;;2.28;0.68;;;11.40;1.00;;;;;;7380765;19;20014;-69
2024/01/03 13:16:59;;;;;;;1.38;0.43;;;11.50;1.00;;;;;;7378296;19;20022;-69
2024/01/03 13:19:29;;;;;;;1.95;0.82;;;11.60;1.00;;;;;;7378365;19;20035;-69
2024/01/03 13:22:01;;;;;;;1.10;0.50;;;11.70;1.00;;;;;;7379120;19;20041;-69
2024/01/03 13:24:31;;;;;;;1.83;0.47;;;11.70;1.00;;;;;;7378251;19;20025;-70
2024/01/03 13:27:01;;;;;;;2.17;0.65;;;11.90;1.00;;;;;;7379402;19;20010;-70